Time;durP1;ratioP1;P1;durP2;ratioP2;P2;SDS_P1;SDS_P2;PMS_P1;PMS_P2;Temp;Humidity;BMP_temperature;BMP_pressure;BME280_temperature;BME280_humidity;BME280_pressure;Samples;Min_cycle;Max_cycle;Signal;HPM_P1;HPM_P2
2023/12/05 00:00:13;;;;;;;29.57;12.97;;;0.70;99.90;;;;;;4935005;29;20187;-66
2023/12/05 00:02:39;;;;;;;29.13;13.93;;;0.70;99.90;;;;;;4935272;29;20214;-65
2023/12/05 00:05:05;;;;;;;30.17;12.87;;;0.60;99.90;;;;;;4934186;29;20191;-66
2023/12/05 00:07:30;;;;;;;27.87;12.40;;;0.70;99.90;;;;;;4935440;29;20222;-65
2023/12/05 00:09:58;;;;;;;27.90;13.03;;;0.70;99.90;;;;;;4934573;29;20183;-65
2023/12/05 00:12:23;;;;;;;31.23;14.00;;;0.70;99.90;;;;;;4935460;29;20844;-66
2023/12/05 00:14:49;;;;;;;30.60;14.27;;;0.70;99.90;;;;;;4935003;29;20195;-66
2023/12/05 00:17:14;;;;;;;32.63;13.77;;;0.80;99.90;;;;;;4935391;29;20176;-66
2023/12/05 00:19:40;;;;;;;28.03;13.93;;;0.80;99.90;;;;;;4933201;29;20696;-66
2023/12/05 00:22:06;;;;;;;28.17;13.60;;;0.90;99.90;;;;;;4935126;29;20903;-66
2023/12/05 00:24:31;;;;;;;29.70;14.23;;;0.90;99.90;;;;;;4935068;29;20195;-66
2023/12/05 00:26:57;;;;;;;28.70;13.37;;;0.90;99.90;;;;;;4934820;29;20195;-65
2023/12/05 00:29:22;;;;;;;27.57;13.00;;;0.90;99.90;;;;;;4934906;29;20184;-66
2023/12/05 00:31:48;;;;;;;28.83;13.60;;;0.90;99.90;;;;;;4934150;29;20712;-65
2023/12/05 00:34:13;;;;;;;31.03;13.47;;;0.90;99.90;;;;;;4934071;29;20185;-66
2023/12/05 00:36:39;;;;;;;31.90;14.10;;;0.90;99.90;;;;;;4934805;29;20672;-65
2023/12/05 00:39:04;;;;;;;26.80;13.50;;;0.90;99.90;;;;;;4934876;29;20609;-66
2023/12/05 00:41:30;;;;;;;32.60;13.80;;;0.90;99.90;;;;;;4933848;29;20696;-65
2023/12/05 00:43:55;;;;;;;28.90;13.70;;;0.90;99.90;;;;;;4934701;29;20221;-66
2023/12/05 00:46:22;;;;;;;28.10;13.70;;;0.90;99.90;;;;;;4934683;29;20246;-66
2023/12/05 00:48:48;;;;;;;30.37;14.07;;;0.90;99.90;;;;;;4934492;29;20234;-66
2023/12/05 00:51:13;;;;;;;31.47;14.30;;;0.90;99.90;;;;;;4933970;29;20199;-64
2023/12/05 00:53:39;;;;;;;27.60;12.83;;;0.90;99.90;;;;;;4934579;29;20238;-64
2023/12/05 00:56:10;;;;;;;28.27;13.47;;;0.90;99.90;;;;;;4934336;29;20183;-65
2023/12/05 00:58:36;;;;;;;28.13;13.27;;;0.90;99.90;;;;;;4934504;29;20657;-64
2023/12/05 01:01:02;;;;;;;28.97;13.37;;;0.90;99.90;;;;;;4933706;29;20211;-65
2023/12/05 01:03:28;;;;;;;27.50;13.77;;;1.00;99.90;;;;;;4934471;29;20191;-64
2023/12/05 01:05:53;;;;;;;29.80;13.10;;;1.00;99.90;;;;;;4934084;29;20684;-64
2023/12/05 01:08:19;;;;;;;24.07;12.93;;;0.90;99.90;;;;;;4934287;28;20203;-64
2023/12/05 01:10:45;;;;;;;27.30;13.07;;;0.90;99.90;;;;;;4933260;29;20196;-65
2023/12/05 01:13:10;;;;;;;27.23;13.03;;;1.00;99.90;;;;;;4934131;29;20191;-64
2023/12/05 01:15:36;;;;;;;28.43;13.23;;;1.00;99.90;;;;;;4934138;29;20218;-64
2023/12/05 01:18:02;;;;;;;27.47;13.93;;;1.00;99.90;;;;;;4934274;29;20548;-65
2023/12/05 01:20:28;;;;;;;26.33;13.03;;;1.00;99.90;;;;;;4933731;29;20183;-65
2023/12/05 01:22:54;;;;;;;28.47;13.60;;;1.00;99.90;;;;;;4926139;29;20226;-64
2023/12/05 01:25:20;;;;;;;28.90;13.07;;;1.00;99.90;;;;;;4933926;29;20191;-65
2023/12/05 01:27:45;;;;;;;30.67;12.77;;;0.90;99.90;;;;;;4933673;29;20215;-64
2023/12/05 01:30:11;;;;;;;27.77;12.90;;;1.00;99.90;;;;;;4933450;29;20191;-65
2023/12/05 01:32:37;;;;;;;31.30;13.80;;;0.90;99.90;;;;;;4933569;29;20716;-65
2023/12/05 01:35:03;;;;;;;28.60;13.83;;;0.90;99.90;;;;;;4933936;29;20222;-65
2023/12/05 01:37:28;;;;;;;26.83;12.70;;;0.90;99.90;;;;;;4933866;29;20201;-65
2023/12/05 01:39:54;;;;;;;29.60;13.47;;;0.90;99.90;;;;;;4932932;29;20191;-64
2023/12/05 01:42:19;;;;;;;27.10;12.73;;;0.90;99.90;;;;;;4933640;29;20404;-65
2023/12/05 01:44:45;;;;;;;26.43;12.60;;;0.90;99.90;;;;;;4933602;29;20218;-65
2023/12/05 01:47:13;;;;;;;29.40;13.60;;;0.90;99.90;;;;;;4933750;29;20191;-65
2023/12/05 01:49:40;;;;;;;27.53;13.30;;;0.90;99.90;;;;;;4933010;29;20568;-64
2023/12/05 01:52:07;;;;;;;28.00;12.47;;;0.90;99.90;;;;;;4933498;29;20913;-65
2023/12/05 01:54:33;;;;;;;24.17;11.57;;;0.90;99.90;;;;;;4933462;29;20195;-65
2023/12/05 01:56:59;;;;;;;25.40;12.57;;;0.90;99.90;;;;;;4932144;29;20190;-65
2023/12/05 01:59:26;;;;;;;25.93;12.20;;;1.00;99.90;;;;;;4933369;29;20665;-65
2023/12/05 02:01:52;;;;;;;23.60;11.90;;;1.00;99.90;;;;;;4932689;29;20290;-65
2023/12/05 02:04:19;;;;;;;23.83;11.03;;;1.00;99.90;;;;;;4933463;29;20258;-65
2023/12/05 02:06:49;;;;;;;22.33;11.73;;;1.00;99.90;;;;;;4933252;29;20237;-65
2023/12/05 02:09:16;;;;;;;22.37;10.63;;;1.00;99.90;;;;;;4933220;29;20199;-65
2023/12/05 02:11:42;;;;;;;23.70;11.57;;;1.00;99.90;;;;;;4932340;29;20211;-65
2023/12/05 02:14:09;;;;;;;23.13;11.10;;;1.00;99.90;;;;;;4932050;29;20175;-65
2023/12/05 02:16:51;;;;;;;25.67;11.70;;;1.00;99.90;;;;;;4933103;29;20552;-65
2023/12/05 02:19:43;;;;;;;22.30;10.90;;;1.10;99.90;;;;;;4932497;29;20183;-65
2023/12/05 02:22:38;;;;;;;20.70;10.60;;;1.10;99.90;;;;;;4933079;29;20245;-66
2023/12/05 02:25:24;;;;;;;18.73;9.80;;;1.10;99.90;;;;;;4933302;29;20199;-65
2023/12/05 02:27:51;;;;;;;22.60;10.20;;;1.10;99.90;;;;;;4933072;29;20245;-64
2023/12/05 02:30:16;;;;;;;20.07;10.07;;;1.10;99.90;;;;;;4932262;29;20179;-65
2023/12/05 02:32:42;;;;;;;18.67;9.63;;;1.10;99.90;;;;;;4932782;29;20207;-65
2023/12/05 02:35:10;;;;;;;23.20;10.63;;;1.10;99.90;;;;;;4933055;29;20171;-65
2023/12/05 02:38:09;;;;;;;18.50;9.43;;;1.10;99.90;;;;;;4933037;29;20665;-65
2023/12/05 02:41:04;;;;;;;19.93;10.47;;;1.10;99.90;;;;;;4932166;29;20528;-65
2023/12/05 02:43:49;;;;;;;20.00;10.13;;;1.10;99.90;;;;;;4933073;29;20191;-65
2023/12/05 02:46:17;;;;;;;18.87;9.73;;;1.20;99.90;;;;;;4933016;29;20179;-65
2023/12/05 02:48:44;;;;;;;16.97;8.77;;;1.20;99.90;;;;;;4932730;29;20276;-65
2023/12/05 02:51:10;;;;;;;17.13;9.07;;;1.20;99.90;;;;;;4932374;29;20631;-65
2023/12/05 02:53:36;;;;;;;23.10;10.83;;;1.10;99.90;;;;;;4932863;29;20176;-65
2023/12/05 02:56:02;;;;;;;19.03;9.93;;;1.10;99.90;;;;;;4932688;29;20186;-65
2023/12/05 02:58:28;;;;;;;20.10;10.03;;;1.10;99.90;;;;;;4931970;29;20191;-65
2023/12/05 03:00:54;;;;;;;20.63;10.13;;;1.10;99.90;;;;;;4932073;29;20230;-65
2023/12/05 03:03:19;;;;;;;20.37;9.43;;;1.20;99.90;;;;;;4932776;29;20191;-65
2023/12/05 03:05:45;;;;;;;20.00;10.53;;;1.20;99.90;;;;;;4932669;29;20191;-65
2023/12/05 03:08:10;;;;;;;20.57;9.87;;;1.20;99.90;;;;;;4932689;29;20218;-65
2023/12/05 03:10:36;;;;;;;17.63;9.53;;;1.20;99.90;;;;;;4931880;29;20191;-65
2023/12/05 03:13:02;;;;;;;20.70;9.37;;;1.20;99.90;;;;;;4932636;29;20214;-65
2023/12/05 03:15:27;;;;;;;17.47;9.27;;;1.30;99.90;;;;;;4931690;29;20295;-65
2023/12/05 03:17:53;;;;;;;18.60;8.77;;;1.30;99.90;;;;;;4932561;29;20274;-65
2023/12/05 03:20:19;;;;;;;20.87;10.13;;;1.30;99.90;;;;;;4932066;29;20281;-65
2023/12/05 03:22:45;;;;;;;20.50;10.50;;;1.30;99.90;;;;;;4932676;29;20684;-65
2023/12/05 03:25:11;;;;;;;17.83;9.43;;;1.30;99.90;;;;;;4932441;29;20720;-65
2023/12/05 03:27:37;;;;;;;20.53;9.87;;;1.30;99.90;;;;;;4932457;29;20211;-65
2023/12/05 03:30:03;;;;;;;18.00;9.10;;;1.30;99.90;;;;;;4933511;29;20258;-65
2023/12/05 03:32:28;;;;;;;19.30;9.90;;;1.30;99.90;;;;;;4936046;29;20273;-65
2023/12/05 03:34:54;;;;;;;17.37;9.20;;;1.40;99.90;;;;;;4935881;29;20191;-65
2023/12/05 03:37:20;;;;;;;19.50;10.03;;;1.30;99.90;;;;;;4936006;29;20199;-65
2023/12/05 03:39:45;;;;;;;18.37;9.23;;;1.30;99.90;;;;;;4935278;29;20191;-65
2023/12/05 03:42:11;;;;;;;17.73;9.03;;;1.30;99.90;;;;;;4935762;29;20203;-65
2023/12/05 03:44:36;;;;;;;17.17;9.00;;;1.30;99.90;;;;;;4935813;29;20669;-65
2023/12/05 03:47:02;;;;;;;17.27;8.60;;;1.30;99.90;;;;;;4935807;29;20625;-65
2023/12/05 03:49:27;;;;;;;20.60;9.60;;;1.30;99.90;;;;;;4935631;29;20830;-66
2023/12/05 03:51:53;;;;;;;16.60;9.03;;;1.40;99.90;;;;;;4935249;29;20258;-66
2023/12/05 03:54:18;;;;;;;17.10;8.90;;;1.40;99.90;;;;;;4936131;29;20199;-64
2023/12/05 03:56:44;;;;;;;19.13;9.67;;;1.40;99.90;;;;;;4936214;29;20226;-67
2023/12/05 03:59:10;;;;;;;18.97;9.53;;;1.40;99.90;;;;;;4936553;29;20274;-68
2023/12/05 04:01:35;;;;;;;18.13;9.47;;;1.30;99.90;;;;;;4935699;29;20215;-68
2023/12/05 04:04:01;;;;;;;19.20;9.97;;;1.30;99.90;;;;;;4934956;29;20192;-68
2023/12/05 04:06:27;;;;;;;19.83;10.10;;;1.40;99.90;;;;;;4935391;29;20278;-66
2023/12/05 04:08:52;;;;;;;19.70;9.27;;;1.40;99.90;;;;;;4936248;29;20707;-67
2023/12/05 04:11:29;;;;;;;20.77;10.20;;;1.30;99.90;;;;;;4935445;29;20293;-68
2023/12/05 04:13:55;;;;;;;21.13;9.93;;;1.40;99.90;;;;;;4936165;29;20179;-67
2023/12/05 04:16:20;;;;;;;20.13;9.43;;;1.40;99.90;;;;;;4936522;29;20583;-68
2023/12/05 04:18:46;;;;;;;18.27;9.70;;;1.40;99.90;;;;;;4936180;29;20289;-67
2023/12/05 04:21:11;;;;;;;21.37;10.27;;;1.40;99.90;;;;;;4935306;29;20286;-67
2023/12/05 04:23:37;;;;;;;20.43;10.57;;;1.40;99.90;;;;;;4935909;29;20250;-64
2023/12/05 04:26:02;;;;;;;20.57;8.83;;;1.40;99.90;;;;;;4935505;29;20191;-64
2023/12/05 04:28:31;;;;;;;22.07;10.27;;;1.40;99.90;;;;;;4935674;29;20229;-63
2023/12/05 04:30:57;;;;;;;21.80;9.83;;;1.50;99.90;;;;;;4934470;29;20190;-63
2023/12/05 04:33:22;;;;;;;21.43;10.40;;;1.40;99.90;;;;;;4936620;29;20708;-64
2023/12/05 04:35:48;;;;;;;20.30;10.10;;;1.40;99.90;;;;;;4935814;29;20605;-64
2023/12/05 04:38:13;;;;;;;23.00;10.93;;;1.40;99.90;;;;;;4936166;29;20270;-65
2023/12/05 04:40:39;;;;;;;20.57;10.20;;;1.40;99.90;;;;;;4934819;29;20207;-63
2023/12/05 04:43:04;;;;;;;20.80;10.57;;;1.40;99.90;;;;;;4935337;29;20210;-64
2023/12/05 04:45:30;;;;;;;22.90;10.83;;;1.40;99.90;;;;;;4934719;29;20195;-63
2023/12/05 04:47:56;;;;;;;20.53;10.40;;;1.50;99.90;;;;;;4934532;29;20242;-64
2023/12/05 04:50:21;;;;;;;21.00;10.73;;;1.50;99.90;;;;;;4934100;29;20554;-63
2023/12/05 04:52:47;;;;;;;29.83;11.87;;;1.40;99.90;;;;;;4934396;29;20624;-64
2023/12/05 04:55:12;;;;;;;24.33;11.93;;;1.40;99.90;;;;;;4934441;29;20312;-64
2023/12/05 04:57:38;;;;;;;23.07;11.43;;;1.40;99.90;;;;;;4934523;29;20270;-64
2023/12/05 05:00:05;;;;;;;24.17;11.83;;;1.40;99.90;;;;;;4933751;29;20636;-64
2023/12/05 05:02:30;;;;;;;29.80;11.30;;;1.40;99.90;;;;;;4934338;29;20560;-65
2023/12/05 05:04:56;;;;;;;26.97;12.07;;;1.40;99.90;;;;;;4934273;29;20193;-63
2023/12/05 05:07:21;;;;;;;27.90;12.13;;;1.40;99.90;;;;;;4934307;29;20218;-63
2023/12/05 05:09:47;;;;;;;30.23;11.53;;;1.40;99.90;;;;;;4933615;29;20243;-64
2023/12/05 05:12:14;;;;;;;27.87;11.63;;;1.40;99.90;;;;;;4934111;29;20207;-63
2023/12/05 05:14:39;;;;;;;26.30;12.23;;;1.40;99.90;;;;;;4934117;29;20330;-64
2023/12/05 05:17:07;;;;;;;26.10;12.73;;;1.40;99.90;;;;;;4934245;29;20270;-65
2023/12/05 05:19:33;;;;;;;28.87;12.20;;;1.40;99.90;;;;;;4933372;29;20180;-66
2023/12/05 05:21:58;;;;;;;33.07;12.83;;;1.40;99.90;;;;;;4933998;29;20555;-64
2023/12/05 05:24:24;;;;;;;25.90;12.30;;;1.40;99.90;;;;;;4933912;29;20179;-64
2023/12/05 05:26:50;;;;;;;29.37;12.43;;;1.40;99.90;;;;;;4948395;29;20191;-63
2023/12/05 05:29:15;;;;;;;28.53;12.07;;;1.40;99.90;;;;;;4932556;29;20211;-63
2023/12/05 05:31:41;;;;;;;27.03;12.10;;;1.40;99.90;;;;;;4931724;29;20219;-64
2023/12/05 05:34:06;;;;;;;28.80;12.73;;;1.50;99.90;;;;;;4933863;29;20565;-65
2023/12/05 05:36:32;;;;;;;26.50;12.40;;;1.50;99.90;;;;;;4932142;29;20608;-65
2023/12/05 05:38:58;;;;;;;26.87;11.83;;;1.50;99.90;;;;;;4933831;29;20180;-64
2023/12/05 05:41:23;;;;;;;28.97;12.43;;;1.50;99.90;;;;;;4933064;29;20254;-65
2023/12/05 05:43:49;;;;;;;28.27;12.03;;;1.50;99.90;;;;;;4933530;29;20237;-65
2023/12/05 05:46:14;;;;;;;29.63;13.13;;;1.50;99.90;;;;;;4932501;29;20214;-65
2023/12/05 05:48:40;;;;;;;40.23;16.60;;;1.60;99.90;;;;;;4933391;29;20215;-64
2023/12/05 05:51:06;;;;;;;30.23;13.00;;;1.60;99.90;;;;;;4936011;29;20207;-65
2023/12/05 05:53:32;;;;;;;25.13;11.83;;;1.50;99.90;;;;;;4933332;29;20191;-65
2023/12/05 05:56:00;;;;;;;33.07;13.83;;;1.50;99.90;;;;;;4933559;29;20708;-65
2023/12/05 05:58:27;;;;;;;32.53;14.40;;;1.50;99.90;;;;;;4933421;29;20195;-65
2023/12/05 06:00:52;;;;;;;33.10;13.17;;;1.50;99.90;;;;;;4932647;29;20191;-65
2023/12/05 06:03:18;;;;;;;30.57;13.13;;;1.50;99.90;;;;;;4933679;29;20241;-65
2023/12/05 06:05:43;;;;;;;31.70;13.30;;;1.50;99.90;;;;;;4933341;29;20649;-65
2023/12/05 06:08:09;;;;;;;29.27;13.43;;;1.50;99.90;;;;;;4933199;29;20699;-65
2023/12/05 06:10:35;;;;;;;51.23;18.93;;;1.50;99.90;;;;;;4947371;29;20633;-65
2023/12/05 06:13:01;;;;;;;40.53;16.33;;;1.60;99.90;;;;;;4931945;29;20211;-64
2023/12/05 06:15:26;;;;;;;31.10;13.67;;;1.60;99.90;;;;;;4933217;29;20659;-64
2023/12/05 06:17:52;;;;;;;31.33;13.97;;;1.60;99.90;;;;;;4933020;29;20203;-64
2023/12/05 06:20:18;;;;;;;30.13;13.10;;;1.50;99.90;;;;;;4932760;29;20538;-65
2023/12/05 06:22:43;;;;;;;31.17;13.07;;;1.50;99.90;;;;;;4933031;29;20207;-65
2023/12/05 06:25:09;;;;;;;30.77;13.47;;;1.50;99.90;;;;;;4933189;29;20715;-65
2023/12/05 06:27:34;;;;;;;34.67;14.90;;;1.60;99.90;;;;;;4932754;29;20206;-66
2023/12/05 06:30:00;;;;;;;32.33;14.60;;;1.60;99.90;;;;;;4932546;29;20262;-66
2023/12/05 06:32:25;;;;;;;37.37;13.80;;;1.60;99.90;;;;;;4932519;29;20299;-66
2023/12/05 06:34:51;;;;;;;32.10;14.70;;;1.60;99.90;;;;;;4932225;29;20187;-65
2023/12/05 06:37:16;;;;;;;32.60;14.27;;;1.60;99.90;;;;;;4933035;29;20191;-66
2023/12/05 06:39:42;;;;;;;32.77;14.87;;;1.60;99.90;;;;;;4932213;29;20262;-65
2023/12/05 06:42:07;;;;;;;39.93;15.47;;;1.60;99.90;;;;;;4932708;29;20238;-65
2023/12/05 06:44:33;;;;;;;39.67;17.60;;;1.70;99.90;;;;;;4932864;29;20179;-66
2023/12/05 06:46:59;;;;;;;38.43;15.57;;;1.70;99.90;;;;;;4932863;29;20195;-65
2023/12/05 06:49:24;;;;;;;33.57;14.27;;;1.70;99.90;;;;;;4932884;29;20215;-65
2023/12/05 06:51:56;;;;;;;35.00;15.30;;;1.60;99.90;;;;;;4932429;29;20636;-65
2023/12/05 06:54:22;;;;;;;64.83;25.63;;;1.60;99.90;;;;;;4932966;29;20190;-66
2023/12/05 06:56:48;;;;;;;38.23;17.03;;;1.70;99.90;;;;;;4932668;29;20179;-66
2023/12/05 06:59:14;;;;;;;48.83;20.30;;;1.70;99.90;;;;;;4932867;29;20311;-65
2023/12/05 07:01:40;;;;;;;38.47;16.27;;;1.70;99.90;;;;;;4932000;29;20295;-65
2023/12/05 07:04:06;;;;;;;31.60;14.10;;;1.70;99.90;;;;;;4933225;29;20286;-66
2023/12/05 07:06:31;;;;;;;29.93;14.57;;;1.70;99.90;;;;;;4936744;29;20712;-66
2023/12/05 07:08:57;;;;;;;32.47;14.03;;;1.70;99.90;;;;;;4936299;29;20705;-65
2023/12/05 07:11:25;;;;;;;33.17;13.07;;;1.70;99.90;;;;;;4935743;29;20681;-66
2023/12/05 07:13:52;;;;;;;33.67;14.60;;;1.60;99.90;;;;;;4936561;28;20183;-65
2023/12/05 07:16:18;;;;;;;33.63;14.13;;;1.70;99.90;;;;;;4936776;29;20649;-66
2023/12/05 07:18:43;;;;;;;32.57;13.70;;;1.60;99.90;;;;;;4936241;29;20194;-65
2023/12/05 07:21:09;;;;;;;37.27;15.73;;;1.70;99.90;;;;;;4935478;29;20203;-66
2023/12/05 07:23:34;;;;;;;35.00;15.10;;;1.70;99.90;;;;;;4936268;29;20197;-65
2023/12/05 07:26:00;;;;;;;33.87;15.17;;;1.70;99.90;;;;;;4936106;29;20652;-65
2023/12/05 07:28:26;;;;;;;33.90;14.13;;;1.70;99.90;;;;;;4936215;29;20703;-66
2023/12/05 07:30:51;;;;;;;70.03;25.23;;;1.80;99.90;;;;;;4935222;29;20206;-65
2023/12/05 07:33:17;;;;;;;38.43;16.30;;;1.70;99.90;;;;;;4938955;29;20215;-65
2023/12/05 07:35:42;;;;;;;34.47;15.20;;;1.70;99.90;;;;;;4937769;28;20557;-65
2023/12/05 07:38:08;;;;;;;56.10;22.33;;;1.80;99.90;;;;;;4935886;29;20250;-66
2023/12/05 07:40:33;;;;;;;53.20;21.37;;;1.80;99.90;;;;;;4935049;29;20195;-66
2023/12/05 07:42:59;;;;;;;53.73;20.53;;;1.80;99.90;;;;;;4936093;28;20624;-65
2023/12/05 07:45:25;;;;;;;46.10;19.50;;;1.80;99.90;;;;;;4935818;29;20187;-66
2023/12/05 07:47:50;;;;;;;41.33;16.30;;;1.90;99.90;;;;;;4935578;29;20246;-65
2023/12/05 07:50:16;;;;;;;38.53;15.90;;;1.80;99.90;;;;;;4935239;29;20183;-65
2023/12/05 07:52:42;;;;;;;38.77;16.60;;;1.80;99.90;;;;;;4935577;29;20266;-65
2023/12/05 07:55:08;;;;;;;39.07;15.70;;;1.90;99.90;;;;;;4935657;29;20676;-65
2023/12/05 07:57:33;;;;;;;41.67;16.27;;;1.80;99.90;;;;;;4935453;29;20222;-66
2023/12/05 07:59:59;;;;;;;40.00;16.93;;;1.80;99.90;;;;;;4935007;29;20205;-65
2023/12/05 08:02:25;;;;;;;41.47;18.03;;;1.70;99.90;;;;;;4935666;29;20586;-65
2023/12/05 08:04:51;;;;;;;41.90;18.30;;;1.70;99.90;;;;;;4935502;29;20282;-64
2023/12/05 08:07:17;;;;;;;65.57;24.77;;;1.80;99.90;;;;;;4935372;29;20191;-66
2023/12/05 08:09:42;;;;;;;62.77;24.07;;;1.80;99.90;;;;;;4933695;29;20191;-63
2023/12/05 08:12:09;;;;;;;48.87;20.87;;;1.80;99.90;;;;;;4935230;29;20215;-66
2023/12/05 08:14:34;;;;;;;33.30;15.50;;;1.80;99.90;;;;;;4935498;29;20582;-68
2023/12/05 08:17:00;;;;;;;48.07;19.23;;;1.90;99.90;;;;;;4934270;29;20368;-63
2023/12/05 08:19:25;;;;;;;42.40;16.80;;;1.90;99.90;;;;;;4935208;29;20194;-65
2023/12/05 08:21:51;;;;;;;39.83;15.30;;;1.90;99.90;;;;;;4934444;29;20218;-65
2023/12/05 08:24:17;;;;;;;47.47;19.30;;;1.90;99.90;;;;;;4935123;29;20297;-66
2023/12/05 08:26:43;;;;;;;54.60;21.60;;;1.90;99.90;;;;;;4934898;29;20573;-66
2023/12/05 08:29:09;;;;;;;59.50;23.10;;;1.80;99.90;;;;;;4934991;29;20688;-65
2023/12/05 08:31:34;;;;;;;57.90;25.43;;;1.80;99.90;;;;;;4934093;29;20229;-66
2023/12/05 08:34:00;;;;;;;60.07;24.43;;;1.80;99.90;;;;;;4935064;29;20186;-64
2023/12/05 08:36:26;;;;;;;51.03;23.13;;;1.80;99.90;;;;;;4934944;29;20266;-65
2023/12/05 08:38:52;;;;;;;67.00;28.63;;;1.80;99.90;;;;;;4934765;29;20558;-64
2023/12/05 08:41:21;;;;;;;63.97;26.67;;;1.80;99.90;;;;;;4934230;29;20207;-65
2023/12/05 08:43:47;;;;;;;50.03;22.37;;;1.80;99.90;;;;;;4934933;29;20187;-65
2023/12/05 08:46:13;;;;;;;45.13;18.70;;;1.80;99.90;;;;;;4942238;29;20218;-64
2023/12/05 08:48:39;;;;;;;45.77;19.57;;;1.80;99.90;;;;;;4945737;29;20289;-64
2023/12/05 08:51:05;;;;;;;51.33;20.07;;;1.80;99.90;;;;;;4936538;29;20215;-66
2023/12/05 08:53:31;;;;;;;44.63;18.27;;;1.80;99.90;;;;;;4934680;29;20187;-66
2023/12/05 08:55:56;;;;;;;42.57;17.37;;;1.80;99.90;;;;;;4933088;29;20255;-64
2023/12/05 08:58:22;;;;;;;38.97;16.33;;;1.80;99.90;;;;;;4934524;29;20246;-65
2023/12/05 09:00:47;;;;;;;38.17;15.63;;;1.90;99.90;;;;;;4933550;29;20256;-65
2023/12/05 09:03:14;;;;;;;36.23;14.53;;;1.90;99.90;;;;;;4934540;29;20266;-65
2023/12/05 09:05:39;;;;;;;45.17;16.90;;;1.90;99.90;;;;;;4934248;29;20756;-65
2023/12/05 09:08:05;;;;;;;37.47;16.33;;;2.00;99.90;;;;;;4934297;29;20285;-64
2023/12/05 09:10:31;;;;;;;48.53;19.03;;;2.00;99.90;;;;;;4933819;29;20585;-64
2023/12/05 09:12:56;;;;;;;36.60;14.77;;;2.00;99.90;;;;;;4934130;29;20207;-65
2023/12/05 09:15:22;;;;;;;37.50;16.00;;;2.00;99.90;;;;;;4934382;29;20183;-66
2023/12/05 09:17:47;;;;;;;38.57;15.93;;;2.10;99.90;;;;;;4934161;29;20226;-66
2023/12/05 09:20:13;;;;;;;42.73;17.73;;;2.10;99.90;;;;;;4933491;29;20210;-65
2023/12/05 09:22:38;;;;;;;39.13;16.33;;;2.20;99.90;;;;;;4933813;29;20214;-66
2023/12/05 09:25:05;;;;;;;44.27;16.70;;;2.20;99.90;;;;;;4934066;29;20564;-65
2023/12/05 09:27:31;;;;;;;42.53;16.53;;;2.20;99.90;;;;;;4933457;29;20191;-64
2023/12/05 09:29:56;;;;;;;36.73;14.97;;;2.20;99.90;;;;;;4933274;29;20183;-65
2023/12/05 09:32:22;;;;;;;39.50;15.60;;;2.20;99.90;;;;;;4933763;29;20234;-66
2023/12/05 09:34:47;;;;;;;56.10;23.57;;;2.10;99.90;;;;;;4933858;29;20191;-67
2023/12/05 09:37:13;;;;;;;65.10;26.53;;;2.20;99.90;;;;;;4933875;29;20186;-65
2023/12/05 09:39:39;;;;;;;44.37;18.33;;;2.20;99.90;;;;;;4933156;29;20196;-65
2023/12/05 09:42:10;;;;;;;42.00;17.83;;;2.20;99.90;;;;;;4933849;29;20199;-66
2023/12/05 09:44:38;;;;;;;51.53;19.77;;;2.10;99.90;;;;;;4933710;29;20661;-66
2023/12/05 09:47:05;;;;;;;40.33;16.97;;;2.10;99.90;;;;;;4933733;29;20259;-66
2023/12/05 09:49:31;;;;;;;40.00;16.63;;;2.20;99.90;;;;;;4933482;29;20221;-66
2023/12/05 09:52:00;;;;;;;37.47;15.37;;;2.20;99.90;;;;;;4932796;29;20207;-66
2023/12/05 09:54:27;;;;;;;36.60;16.33;;;2.20;99.90;;;;;;4933784;29;20300;-66
2023/12/05 09:56:58;;;;;;;40.10;16.13;;;2.30;99.90;;;;;;4933304;29;20191;-66
2023/12/05 09:59:23;;;;;;;42.33;16.80;;;2.30;99.90;;;;;;4933462;29;20222;-65
2023/12/05 10:01:51;;;;;;;59.83;25.03;;;2.30;99.90;;;;;;4932944;29;21062;-66
2023/12/05 10:04:18;;;;;;;53.33;19.87;;;2.20;99.90;;;;;;4933408;29;20191;-65
2023/12/05 10:06:47;;;;;;;32.73;14.93;;;2.20;99.90;;;;;;4933279;29;20744;-65
2023/12/05 10:09:15;;;;;;;32.30;14.13;;;2.20;99.90;;;;;;4932181;29;20211;-66
2023/12/05 10:11:41;;;;;;;40.23;16.13;;;2.30;99.90;;;;;;4932578;29;20207;-66
2023/12/05 10:14:07;;;;;;;49.50;19.00;;;2.30;99.90;;;;;;4933280;29;20610;-66
2023/12/05 10:16:33;;;;;;;53.03;21.40;;;2.30;99.90;;;;;;4933344;28;20278;-65
2023/12/05 10:18:59;;;;;;;42.60;19.07;;;2.30;99.90;;;;;;4932925;29;20187;-66
2023/12/05 10:21:25;;;;;;;44.97;18.80;;;2.30;99.90;;;;;;4947274;28;20207;-66
2023/12/05 10:23:51;;;;;;;42.93;16.90;;;2.30;99.90;;;;;;4933144;29;20673;-66
2023/12/05 10:26:17;;;;;;;40.57;17.13;;;2.30;99.90;;;;;;4933072;29;20195;-66
2023/12/05 10:28:54;;;;;;;50.17;17.50;;;2.40;99.90;;;;;;4932981;29;20239;-65
2023/12/05 10:31:20;;;;;;;43.47;18.43;;;2.40;99.90;;;;;;4932284;29;20226;-66
2023/12/05 10:33:48;;;;;;;47.90;19.93;;;2.50;99.90;;;;;;4933052;29;20191;-67
2023/12/05 10:36:14;;;;;;;63.03;23.57;;;2.50;99.90;;;;;;4933308;28;20183;-65
2023/12/05 10:38:46;;;;;;;77.27;25.83;;;2.40;99.90;;;;;;4932931;29;20611;-66
2023/12/05 10:41:12;;;;;;;65.80;25.10;;;2.40;99.90;;;;;;4936027;29;20206;-65
2023/12/05 10:43:46;;;;;;;80.23;27.33;;;2.40;99.90;;;;;;4936845;29;20238;-66
2023/12/05 10:46:12;;;;;;;75.63;26.13;;;2.40;99.90;;;;;;4936985;29;20198;-65
2023/12/05 10:48:38;;;;;;;85.47;28.97;;;2.40;99.90;;;;;;4936791;29;20646;-65
2023/12/05 10:51:04;;;;;;;92.43;30.97;;;2.50;99.90;;;;;;4936196;29;20193;-66
2023/12/05 10:53:34;;;;;;;84.63;30.93;;;2.50;99.90;;;;;;4936862;29;20187;-66
2023/12/05 10:56:14;;;;;;;68.60;27.10;;;2.50;99.90;;;;;;4936512;29;20175;-66
2023/12/05 10:58:41;;;;;;;66.23;24.90;;;2.50;99.90;;;;;;4936469;29;20617;-65
2023/12/05 11:01:10;;;;;;;57.47;22.03;;;2.50;99.90;;;;;;4936160;29;20261;-66
2023/12/05 11:03:40;;;;;;;62.57;23.57;;;2.50;99.90;;;;;;4936619;29;20229;-67
2023/12/05 11:06:07;;;;;;;61.83;24.83;;;2.40;99.90;;;;;;4936628;29;20528;-67
2023/12/05 11:08:33;;;;;;;69.73;26.57;;;2.50;99.90;;;;;;4936548;29;20207;-65
2023/12/05 11:11:02;;;;;;;63.70;27.37;;;2.50;99.90;;;;;;4935678;29;20214;-67
2023/12/05 11:13:30;;;;;;;61.40;24.83;;;2.50;99.90;;;;;;4936510;29;20179;-67
2023/12/05 11:15:59;;;;;;;66.17;25.93;;;2.40;99.90;;;;;;4950887;29;20274;-66
2023/12/05 11:18:47;;;;;;;68.03;26.20;;;2.30;99.90;;;;;;4935184;29;20694;-68
2023/12/05 11:21:23;;;;;;;68.97;24.23;;;2.40;99.90;;;;;;4929425;29;20222;-68
2023/12/05 11:23:49;;;;;;;59.77;24.37;;;2.30;99.90;;;;;;4936196;29;20179;-67
2023/12/05 11:26:23;;;;;;;74.40;25.97;;;2.30;99.90;;;;;;4936133;29;20190;-68
2023/12/05 11:29:05;;;;;;;57.67;21.17;;;2.20;99.90;;;;;;4935785;29;20236;-68
2023/12/05 11:32:14;;;;;;;73.90;27.60;;;2.20;99.90;;;;;;4935075;29;20222;-67
2023/12/05 11:35:03;;;;;;;55.20;21.63;;;2.30;99.90;;;;;;4946786;29;20186;-67
2023/12/05 11:37:51;;;;;;;51.57;19.97;;;2.20;99.90;;;;;;4944528;29;20278;-68
2023/12/05 11:40:16;;;;;;;45.70;19.17;;;2.20;99.90;;;;;;4935297;29;20602;-67
2023/12/05 11:43:08;;;;;;;45.93;18.30;;;2.20;99.90;;;;;;4934817;29;20211;-68
2023/12/05 11:45:41;;;;;;;45.80;17.73;;;2.20;99.90;;;;;;4935972;29;20205;-67
2023/12/05 11:48:11;;;;;;;46.60;18.10;;;2.20;99.90;;;;;;4928765;29;20252;-68
2023/12/05 11:50:47;;;;;;;45.00;17.70;;;2.20;99.90;;;;;;4934624;29;20270;-67
2023/12/05 11:53:15;;;;;;;49.63;20.13;;;2.30;99.90;;;;;;4935932;29;20178;-64
2023/12/05 11:55:47;;;;;;;42.73;17.83;;;2.30;99.90;;;;;;4938765;29;20171;-67
2023/12/05 11:58:42;;;;;;;48.27;17.80;;;2.30;99.90;;;;;;4944290;29;20187;-67
2023/12/05 12:01:09;;;;;;;38.33;15.20;;;2.30;99.90;;;;;;4945509;28;20229;-67
2023/12/05 12:03:46;;;;;;;37.83;16.20;;;2.30;99.90;;;;;;4940152;29;20179;-65
2023/12/05 12:06:14;;;;;;;36.37;14.50;;;2.30;99.90;;;;;;4935593;29;20186;-66
2023/12/05 12:08:41;;;;;;;34.10;13.87;;;2.30;99.90;;;;;;4935229;29;20334;-64
2023/12/05 12:11:07;;;;;;;37.93;14.43;;;2.30;99.90;;;;;;4935122;29;20321;-65
2023/12/05 12:13:33;;;;;;;34.40;14.60;;;2.40;99.90;;;;;;4935350;29;20225;-65
2023/12/05 12:15:59;;;;;;;40.43;15.33;;;2.40;99.90;;;;;;4935146;29;20179;-65
2023/12/05 12:18:26;;;;;;;37.43;14.87;;;2.40;99.90;;;;;;4935285;29;20191;-66
2023/12/05 12:20:52;;;;;;;37.07;15.13;;;2.50;99.90;;;;;;4934526;29;20199;-64
2023/12/05 12:23:19;;;;;;;38.23;16.13;;;2.40;99.90;;;;;;4935251;29;20183;-65
2023/12/05 12:25:53;;;;;;;55.40;20.30;;;2.50;99.90;;;;;;4934931;29;20262;-64
2023/12/05 12:28:30;;;;;;;45.97;18.60;;;2.50;99.90;;;;;;4935161;29;20675;-64
2023/12/05 12:30:57;;;;;;;61.47;21.97;;;2.50;99.90;;;;;;4934233;29;20206;-65
2023/12/05 12:33:28;;;;;;;52.17;22.10;;;2.50;99.90;;;;;;4934681;29;20660;-64
2023/12/05 12:35:54;;;;;;;49.50;21.80;;;2.60;99.90;;;;;;4934812;29;20715;-64
2023/12/05 12:38:20;;;;;;;42.80;18.40;;;2.50;99.90;;;;;;4949726;29;20187;-65